createdAt,value
2019-02-17T00:03:13.297Z,7.40
2019-02-17T00:08:06.132Z,7.60
2019-02-17T00:12:57.851Z,8.00
2019-02-17T00:17:50.108Z,8.20
2019-02-17T00:22:42.198Z,8.30
2019-02-17T00:27:34.462Z,8.30
2019-02-17T00:32:26.425Z,8.30
2019-02-17T00:37:18.475Z,8.20
2019-02-17T00:42:10.170Z,8.20
2019-02-17T00:47:02.122Z,8.00
2019-02-17T00:51:54.168Z,7.70
2019-02-17T00:56:45.863Z,7.40
2019-02-17T01:01:37.702Z,7.20
2019-02-17T01:06:31.705Z,7.10
2019-02-17T01:11:22.945Z,7.00
2019-02-17T01:16:15.052Z,7.10
2019-02-17T01:21:07.121Z,7.10
2019-02-17T01:25:59.066Z,7.20
2019-02-17T01:30:50.925Z,7.30
2019-02-17T01:35:44.938Z,7.40
2019-02-17T01:40:36.601Z,7.50
2019-02-17T01:45:28.521Z,7.60
2019-02-17T01:50:20.561Z,7.60
2019-02-17T01:55:14.941Z,7.60
2019-02-17T02:00:06.446Z,7.60
2019-02-17T02:05:00.717Z,7.70
2019-02-17T02:09:52.047Z,7.70
2019-02-17T02:14:43.960Z,7.70
2019-02-17T02:19:36.034Z,7.60
2019-02-17T02:24:28.017Z,7.60
2019-02-17T02:29:20.040Z,7.50
2019-02-17T02:34:12.158Z,7.50
2019-02-17T02:39:04.036Z,7.50
2019-02-17T02:43:56.961Z,7.60
2019-02-17T02:48:48.585Z,7.60
2019-02-17T02:53:40.513Z,7.60
2019-02-17T02:58:32.179Z,7.50
2019-02-17T03:03:24.014Z,7.50
2019-02-17T03:08:16.031Z,7.50
2019-02-17T03:13:07.953Z,7.50
2019-02-17T03:17:59.895Z,7.50
2019-02-17T03:22:52.089Z,7.50
2019-02-17T03:27:44.016Z,7.40
2019-02-17T03:32:35.629Z,7.30
2019-02-17T03:37:27.478Z,7.10
2019-02-17T03:42:19.285Z,6.80
2019-02-17T03:47:11.056Z,6.60
2019-02-17T03:52:03.776Z,6.50
2019-02-17T03:56:55.780Z,6.60
2019-02-17T04:01:48.021Z,6.80
2019-02-17T04:06:42.229Z,7.00
2019-02-17T04:11:33.928Z,7.30
2019-02-17T04:16:25.951Z,7.40
2019-02-17T04:21:18.061Z,7.50
2019-02-17T04:26:10.292Z,7.50
2019-02-17T04:31:02.411Z,7.60
2019-02-17T04:35:54.439Z,7.60
2019-02-17T04:40:46.473Z,7.60
2019-02-17T04:45:38.421Z,7.60
2019-02-17T04:50:30.253Z,7.60
2019-02-17T04:55:22.226Z,7.50
2019-02-17T05:00:14.351Z,7.50
2019-02-17T05:05:06.080Z,7.40
2019-02-17T05:09:57.658Z,7.50
2019-02-17T05:14:49.669Z,7.40
2019-02-17T05:19:41.429Z,7.40
2019-02-17T05:24:33.465Z,7.40
2019-02-17T05:29:25.322Z,7.40
2019-02-17T05:34:19.539Z,7.30
2019-02-17T05:39:11.159Z,7.30
2019-02-17T05:44:02.950Z,7.20
2019-02-17T05:48:54.801Z,7.20
2019-02-17T05:53:46.969Z,7.20
2019-02-17T05:58:39.778Z,7.20
2019-02-17T06:03:31.549Z,7.20
2019-02-17T06:08:23.220Z,7.20
2019-02-17T06:13:15.081Z,7.20
2019-02-17T06:18:07.153Z,7.10
2019-02-17T06:22:59.140Z,7.20
2019-02-17T06:27:51.005Z,7.20
2019-02-17T06:32:42.988Z,7.20
2019-02-17T06:37:34.935Z,7.30
2019-02-17T06:42:27.037Z,7.30
2019-02-17T06:47:19.102Z,7.40
2019-02-17T06:52:10.926Z,7.50
2019-02-17T06:57:03.069Z,7.50
2019-02-17T07:01:55.118Z,7.50
2019-02-17T07:06:47.230Z,7.50
2019-02-17T07:11:39.081Z,7.50
2019-02-17T07:16:31.292Z,7.50
2019-02-17T07:21:23.362Z,7.60
2019-02-17T07:26:17.740Z,7.70
2019-02-17T07:31:08.909Z,7.60
2019-02-17T07:36:00.869Z,7.70
2019-02-17T07:40:53.057Z,7.80
2019-02-17T07:45:44.918Z,7.80
2019-02-17T07:50:37.023Z,7.90
2019-02-17T07:55:28.998Z,8.00
2019-02-17T08:00:20.994Z,8.10
2019-02-17T08:05:13.063Z,8.20
2019-02-17T08:10:04.986Z,8.30
2019-02-17T08:14:57.285Z,8.40
2019-02-17T08:19:49.365Z,8.50
2019-02-17T08:24:41.617Z,8.70
2019-02-17T08:29:33.990Z,9.00
2019-02-17T08:34:26.283Z,9.20
2019-02-17T08:39:18.217Z,9.30
2019-02-17T08:44:10.287Z,9.40
2019-02-17T08:49:02.342Z,9.40
2019-02-17T08:53:54.938Z,9.50
2019-02-17T08:58:47.041Z,9.50
2019-02-17T09:03:39.149Z,9.50
2019-02-17T09:08:31.322Z,9.60
2019-02-17T09:13:25.510Z,9.70
2019-02-17T09:18:17.119Z,9.90
2019-02-17T09:23:09.159Z,10.00
2019-02-17T09:28:01.198Z,10.10
2019-02-17T09:32:53.236Z,10.30
2019-02-17T09:37:45.178Z,10.20
2019-02-17T09:42:37.588Z,10.20
2019-02-17T09:47:30.724Z,10.40
2019-02-17T09:52:22.769Z,10.50
2019-02-17T09:57:14.912Z,10.50
2019-02-17T10:02:07.047Z,10.60
2019-02-17T10:06:59.253Z,10.70
2019-02-17T10:11:51.413Z,10.90
2019-02-17T10:16:43.944Z,11.20
2019-02-17T10:21:38.154Z,11.20
2019-02-17T10:26:30.015Z,11.40
2019-02-17T10:31:22.972Z,11.70
2019-02-17T10:36:15.870Z,12.20
2019-02-17T10:41:07.939Z,12.60
2019-02-17T10:46:00.670Z,12.60
2019-02-17T10:50:52.974Z,12.80
2019-02-17T10:55:45.301Z,12.80
2019-02-17T11:00:37.696Z,12.90
2019-02-17T11:05:29.970Z,13.10
2019-02-17T11:10:22.006Z,13.10
2019-02-17T11:15:14.325Z,13.20
2019-02-17T11:20:06.393Z,13.40
2019-02-17T11:24:58.727Z,13.60
2019-02-17T11:29:50.913Z,13.60
2019-02-17T11:34:43.161Z,13.70
2019-02-17T11:39:35.618Z,14.00
2019-02-17T11:44:28.118Z,14.00
2019-02-17T11:49:20.569Z,14.10
2019-02-17T11:54:13.162Z,14.20
2019-02-17T11:59:05.763Z,14.50
2019-02-17T12:03:58.206Z,14.80
2019-02-17T12:08:50.630Z,15.00
2019-02-17T12:13:43.258Z,15.10
2019-02-17T12:18:35.566Z,15.20
2019-02-17T12:23:28.467Z,15.50
2019-02-17T12:28:21.198Z,16.00
2019-02-17T12:33:22.119Z,16.40
2019-02-17T12:38:12.894Z,16.70
2019-02-17T12:43:05.406Z,16.80
2019-02-17T12:47:59.269Z,16.80
2019-02-17T12:52:51.601Z,17.10
2019-02-17T12:57:43.902Z,17.10
2019-02-17T13:02:36.074Z,17.00
2019-02-17T13:07:28.358Z,16.90
2019-02-17T13:12:20.870Z,17.10
2019-02-17T13:17:12.887Z,17.30
2019-02-17T13:22:05.111Z,17.10
2019-02-17T13:26:57.289Z,16.90
2019-02-17T13:31:49.619Z,16.80
2019-02-17T13:36:41.823Z,17.00
2019-02-17T13:41:34.393Z,17.10
2019-02-17T13:46:26.792Z,17.40
2019-02-17T13:51:19.454Z,17.50
2019-02-17T13:56:12.074Z,17.80
2019-02-17T14:01:05.423Z,18.20
2019-02-17T14:06:00.049Z,18.30
2019-02-17T14:10:52.411Z,18.90
2019-02-17T14:15:44.906Z,19.00
2019-02-17T14:20:37.240Z,19.00
2019-02-17T14:25:29.471Z,18.70
2019-02-17T14:30:21.531Z,18.60
2019-02-17T14:35:13.713Z,18.20
2019-02-17T14:40:05.675Z,17.80
2019-02-17T14:44:57.673Z,17.60
2019-02-17T14:49:53.074Z,17.50
2019-02-17T14:54:44.386Z,17.40
2019-02-17T14:59:36.433Z,17.30
2019-02-17T15:04:28.667Z,17.20
2019-02-17T15:09:20.807Z,17.20
2019-02-17T15:14:13.934Z,17.00
2019-02-17T15:19:05.794Z,17.00
2019-02-17T15:23:58.070Z,16.90
2019-02-17T15:28:52.319Z,16.80
2019-02-17T15:33:44.214Z,16.80
2019-02-17T15:38:36.702Z,16.70
2019-02-17T15:43:28.846Z,16.70
2019-02-17T15:48:21.305Z,16.50
2019-02-17T15:53:13.590Z,16.50
2019-02-17T15:58:05.952Z,16.50
2019-02-17T16:02:58.247Z,16.40
2019-02-17T16:07:50.488Z,16.40
2019-02-17T16:12:42.586Z,16.30
2019-02-17T16:17:34.940Z,16.20
2019-02-17T16:22:27.226Z,16.10
2019-02-17T16:27:19.536Z,16.10
2019-02-17T16:32:11.970Z,16.00
2019-02-17T16:37:04.311Z,15.90
2019-02-17T16:41:56.884Z,15.80
2019-02-17T16:46:48.938Z,15.70
2019-02-17T16:51:41.087Z,15.40
2019-02-17T16:56:33.209Z,15.20
2019-02-17T17:01:25.486Z,15.10
2019-02-17T17:06:17.536Z,14.90
2019-02-17T17:11:09.451Z,14.70
2019-02-17T17:16:01.479Z,14.60
2019-02-17T17:20:53.406Z,14.50
2019-02-17T17:25:45.395Z,14.30
2019-02-17T17:30:37.559Z,14.10
2019-02-17T17:35:30.036Z,14.00
2019-02-17T17:40:22.204Z,14.00
2019-02-17T17:45:14.437Z,14.20
2019-02-17T17:50:06.391Z,14.20
2019-02-17T17:54:58.814Z,14.30
2019-02-17T17:59:51.094Z,14.30
2019-02-17T18:04:43.133Z,14.20
2019-02-17T18:09:35.266Z,14.20
2019-02-17T18:14:27.565Z,14.10
2019-02-17T18:19:19.413Z,14.00
2019-02-17T18:24:11.635Z,13.80
2019-02-17T18:29:03.542Z,13.70
2019-02-17T18:33:55.626Z,13.60
2019-02-17T18:38:47.486Z,13.50
2019-02-17T18:43:39.334Z,13.40
2019-02-17T18:48:31.390Z,13.30
2019-02-17T18:53:23.331Z,13.20
2019-02-17T18:58:15.402Z,13.20
2019-02-17T19:03:07.759Z,13.10
2019-02-17T19:08:01.261Z,13.00
2019-02-17T19:12:53.055Z,12.90
2019-02-17T19:17:44.962Z,12.90
2019-02-17T19:22:37.078Z,12.70
2019-02-17T19:27:29.023Z,12.70
2019-02-17T19:32:21.222Z,12.60
2019-02-17T19:37:13.330Z,12.50
2019-02-17T19:42:05.746Z,12.40
2019-02-17T19:46:57.893Z,12.40
2019-02-17T19:51:50.542Z,12.30
2019-02-17T19:56:44.531Z,12.20
2019-02-17T20:01:35.727Z,12.10
2019-02-17T20:06:27.574Z,12.00
2019-02-17T20:11:19.587Z,11.80
2019-02-17T20:16:11.576Z,11.60
2019-02-17T20:21:03.312Z,11.50
2019-02-17T20:25:57.725Z,11.30
2019-02-17T20:30:49.647Z,11.20
2019-02-17T20:35:41.290Z,11.00
2019-02-17T20:40:32.994Z,10.90
2019-02-17T20:45:24.843Z,10.70
2019-02-17T20:50:16.697Z,10.70
2019-02-17T20:55:08.709Z,10.70
2019-02-17T21:00:01.137Z,10.80
2019-02-17T21:04:53.205Z,10.80
2019-02-17T21:09:45.336Z,10.80
2019-02-17T21:14:37.535Z,10.80
2019-02-17T21:19:29.493Z,10.80
2019-02-17T21:24:21.671Z,10.70
2019-02-17T21:29:13.736Z,10.60
2019-02-17T21:34:05.762Z,10.50
2019-02-17T21:38:59.598Z,10.60
2019-02-17T21:43:51.237Z,10.50
2019-02-17T21:48:43.285Z,10.40
2019-02-17T21:53:35.453Z,10.40
2019-02-17T21:58:27.522Z,10.30
2019-02-17T22:03:19.356Z,10.20
2019-02-17T22:08:11.365Z,10.10
2019-02-17T22:13:03.166Z,10.10
2019-02-17T22:17:55.953Z,10.00
2019-02-17T22:22:47.805Z,9.90
2019-02-17T22:27:39.712Z,9.80
2019-02-17T22:32:31.778Z,9.70
2019-02-17T22:37:23.902Z,9.60
2019-02-17T22:42:15.772Z,9.60
2019-02-17T22:47:07.648Z,9.50
2019-02-17T22:51:59.820Z,9.50
2019-02-17T22:56:54.329Z,9.40
2019-02-17T23:01:45.824Z,9.40
2019-02-17T23:06:37.925Z,9.30
2019-02-17T23:11:29.769Z,9.30
2019-02-17T23:16:22.189Z,9.30
2019-02-17T23:21:13.842Z,9.20
2019-02-17T23:26:06.111Z,9.30
2019-02-17T23:30:58.268Z,9.40
2019-02-17T23:35:50.444Z,9.50
2019-02-17T23:40:42.480Z,9.70
2019-02-17T23:45:34.594Z,9.70
2019-02-17T23:50:26.550Z,9.70
2019-02-17T23:55:18.607Z,9.60
